Terminal Aerodrome Forecast
Issued by NWS Wichita, KS

Home | Current Version | Previous Version | Text Only | Print | Product List | Glossary Off
Versions: 1 2 3 4 5 6 7 8 9 10 11 12 13

831
FTUS43 KICT 251120
TAFICT
TAF
KICT 251120Z 2512/2612 17009KT P6SM VCSH BKN080
     FM251500 18009KT P6SM VCTS BKN050CB
      TEMPO 2520/2524 4SM TSRA OVC025CB
     FM260500 01008KT 6SM BR VCSH OVC010=

USA.gov is the U.S. government's official web portal to all federal, state and local government web resources and services.